I-580 : West of SR-132 Atmospheric Data: 03/22/2019 Summary  Detailed Graphs  Station List

  Temperature     Wind Precipitation Visibility
Timestamp Air Wet
Bulb
Dew-
point
24-hr
Max
24-hr
Min
Relative
Humidity
Atmospheric
Pressure
Avg
Speed
Avg
Dir
Spot
Speed
Spot
Dir
Max
Speed
Max
Dir
  Rate Situation Start End 1 hr 3 hr 6 hr 12 hr 24 hr   Situation
Date Time °F °F °F °F °F % in Hg mph ° mph ° mph ° Y/N in/hr text Date Time Date Time in in in in in mi text
03/22/2019 12:00 AM 50.18 46.04 41.90 66.56 44.78 73.0 29.80 1.57 E 1.79 E 3.80 NW No 0.000 No Precipitation 03/20/2019 11:30 PM 03/21/2019 12:23 AM 0.000 0.000 0.000 0.000 0.000 1.24 Clear
03/22/2019 12:10 AM 49.82 45.50 41.18 66.56 44.78 73.0 29.80 3.58 S 3.13 S 5.37 S No 0.000 No Precipitation 03/20/2019 11:30 PM 03/21/2019 12:23 AM 0.000 0.000 0.000 0.000 0.000 1.24 Clear
03/22/2019 12:20 AM 50.72 46.04 41.36 66.56 44.78 71.0 29.80 1.12 SE 2.46 SW 5.59 SE No 0.000 No Precipitation 03/20/2019 11:30 PM 03/21/2019 12:23 AM 0.000 0.000 0.000 0.000 0.000 1.24 Clear
03/22/2019 12:30 AM 51.80 46.58 41.36 66.56 44.78 68.0 29.80 2.46 E 0.00 N 6.04 E No 0.000 No Precipitation 03/20/2019 11:30 PM 03/21/2019 12:23 AM 0.000 0.000 0.000 0.000 0.000 1.24 Clear
03/22/2019 12:40 AM 51.62 46.40 41.00 66.56 44.78 67.0 29.80 1.12 SE 0.00 N 4.70 E No 0.000 No Precipitation 03/20/2019 11:30 PM 03/21/2019 12:23 AM 0.000 0.000 0.000 0.000 0.000 1.24 Clear
03/22/2019 12:50 AM 51.98 46.40 40.82 66.56 44.78 66.0 29.80 2.01 NE 1.57 NE 5.59 E No 0.000 No Precipitation 03/20/2019 11:30 PM 03/21/2019 12:23 AM 0.000 0.000 0.000 0.000 0.000 1.24 Clear
03/22/2019 01:00 AM 50.90 45.86 40.82 66.56 44.78 68.0 29.80 2.91 NW 3.36 NW 4.25 NW No 0.000 No Precipitation 03/20/2019 11:30 PM 03/21/2019 12:23 AM 0.000 0.000 0.000 0.000 0.000 1.24 Clear
03/22/2019 01:10 AM 49.82 45.32 40.82 66.56 44.78 71.0 29.80 1.12 SE 1.34 E 4.03 NW No 0.000 No Precipitation 03/20/2019 11:30 PM 03/21/2019 12:23 AM 0.000 0.000 0.000 0.000 0.000 1.24 Clear
03/22/2019 01:20 AM 49.46 45.14 40.46 66.56 44.78 71.0 29.81 3.80 SE 4.47 SE 5.14 S No 0.000 No Precipitation 03/20/2019 11:30 PM 03/21/2019 12:23 AM 0.000 0.000 0.000 0.000 0.000 1.24 Clear
03/22/2019 01:30 AM 49.46 45.14 40.64 66.56 44.78 72.0 29.81 4.92 SE 5.59 SE 6.93 SE No 0.000 No Precipitation 03/20/2019 11:30 PM 03/21/2019 12:23 AM 0.000 0.000 0.000 0.000 0.000 1.24 Clear
03/22/2019 01:40 AM 49.64 45.14 40.46 66.56 44.78 71.0 29.81 6.26 SE 7.61 SE 10.96 E No 0.000 No Precipitation 03/20/2019 11:30 PM 03/21/2019 12:23 AM 0.000 0.000 0.000 0.000 0.000 1.24 Clear
03/22/2019 01:50 AM 49.64 44.96 39.74 66.56 44.78 69.0 29.81 5.59 SE 5.59 E 8.28 E No 0.000 No Precipitation 03/20/2019 11:30 PM 03/21/2019 12:23 AM 0.000 0.000 0.000 0.000 0.000 1.24 Clear
03/22/2019 02:00 AM 50.72 45.50 39.92 66.56 44.78 67.0 29.81 2.68 SE 3.80 SE 6.71 SE No 0.000 No Precipitation 03/20/2019 11:30 PM 03/21/2019 12:23 AM 0.000 0.000 0.000 0.000 0.000 1.24 Clear
03/22/2019 02:10 AM 49.10 44.78 40.10 66.56 44.78 71.0 29.82 2.24 S 2.01 SW 4.47 SE No 0.000 No Precipitation 03/20/2019 11:30 PM 03/21/2019 12:23 AM 0.000 0.000 0.000 0.000 0.000 1.24 Clear
03/22/2019 02:20 AM 49.10 44.78 39.92 66.56 44.78 71.0 29.82 2.24 S 2.01 S 6.93 E No 0.000 No Precipitation 03/20/2019 11:30 PM 03/21/2019 12:23 AM 0.000 0.000 0.000 0.000 0.000 1.24 Clear
03/22/2019 02:30 AM 49.46 44.96 40.10 66.56 44.78 70.0 29.82 1.34 SE 1.34 E 4.47 S No 0.000 No Precipitation 03/20/2019 11:30 PM 03/21/2019 12:23 AM 0.000 0.000 0.000 0.000 0.000 1.24 Clear
03/22/2019 02:40 AM 50.18 45.14 39.74 66.56 44.78 67.0 29.82 0.00 N 0.00 N 0.00 E No 0.000 No Precipitation 03/20/2019 11:30 PM 03/21/2019 12:23 AM 0.000 0.000 0.000 0.000 0.000 1.24 Clear
03/22/2019 02:50 AM 48.20 44.24 39.92 66.56 44.78 73.0 29.82 1.34 E 1.57 E 4.47 W No 0.000 No Precipitation 03/20/2019 11:30 PM 03/21/2019 12:23 AM 0.000 0.000 0.000 0.000 0.000 1.24 Clear
03/22/2019 03:00 AM 48.02 44.42 40.46 66.56 44.78 75.0 29.82 3.36 E 4.47 E 5.37 E No 0.000 No Precipitation 03/20/2019 11:30 PM 03/21/2019 12:23 AM 0.000 0.000 0.000 0.000 0.000 1.24 Clear
03/22/2019 03:10 AM 47.12 43.52 39.56 66.56 44.78 75.0 29.81 4.03 E 4.92 E 7.38 E No 0.000 No Precipitation 03/20/2019 11:30 PM 03/21/2019 12:23 AM 0.000 0.000 0.000 0.000 0.000 1.24 Clear
03/22/2019 03:20 AM 46.94 43.52 39.74 66.56 44.78 76.0 29.81 3.36 E 4.03 E 6.71 E No 0.000 No Precipitation 03/20/2019 11:30 PM 03/21/2019 12:23 AM 0.000 0.000 0.000 0.000 0.000 1.24 Clear
03/22/2019 03:30 AM 46.22 43.52 40.64 66.56 44.78 81.0 29.82 3.80 NE 3.80 NE 5.59 E No 0.000 No Precipitation 03/20/2019 11:30 PM 03/21/2019 12:23 AM 0.000 0.000 0.000 0.000 0.000 1.24 Clear
03/22/2019 03:40 AM 46.40 43.52 40.10 66.56 44.78 79.0 29.81 6.71 E 6.71 E 8.50 NE No 0.000 No Precipitation 03/20/2019 11:30 PM 03/21/2019 12:23 AM 0.000 0.000 0.000 0.000 0.000 1.24 Clear
03/22/2019 03:50 AM 47.12 43.52 39.56 66.56 44.78 75.0 29.81 5.14 E 5.14 E 9.40 E No 0.000 No Precipitation 03/20/2019 11:30 PM 03/21/2019 12:23 AM 0.000 0.000 0.000 0.000 0.000 1.24 Clear
03/22/2019 04:00 AM 45.86 42.98 39.56 66.56 44.78 79.0 29.81 5.14 E 5.14 E 7.16 E No 0.000 No Precipitation 03/20/2019 11:30 PM 03/21/2019 12:23 AM 0.000 0.000 0.000 0.000 0.000 1.24 Clear
03/22/2019 04:10 AM 46.04 42.98 39.74 66.56 44.78 79.0 29.82 5.14 E 5.37 E 8.95 E No 0.000 No Precipitation 03/20/2019 11:30 PM 03/21/2019 12:23 AM 0.000 0.000 0.000 0.000 0.000 1.24 Clear
03/22/2019 04:20 AM 46.76 43.52 40.10 66.56 44.78 78.0 29.82 4.03 E 4.70 E 8.72 E No 0.000 No Precipitation 03/20/2019 11:30 PM 03/21/2019 12:23 AM 0.000 0.000 0.000 0.000 0.000 1.24 Clear
03/22/2019 04:30 AM 46.76 43.52 40.10 66.56 44.78 78.0 29.82 5.37 E 5.14 E 7.83 E No 0.000 No Precipitation 03/20/2019 11:30 PM 03/21/2019 12:23 AM 0.000 0.000 0.000 0.000 0.000 1.24 Clear
03/22/2019 04:40 AM 46.94 43.88 40.28 66.56 44.78 78.0 29.81 6.04 E 6.71 E 8.50 E No 0.000 No Precipitation 03/20/2019 11:30 PM 03/21/2019 12:23 AM 0.000 0.000 0.000 0.000 0.000 1.24 Clear
03/22/2019 04:50 AM 46.22 43.34 40.28 66.56 44.78 80.0 29.81 5.82 E 6.49 E 8.95 E No 0.000 No Precipitation 03/20/2019 11:30 PM 03/21/2019 12:23 AM 0.000 0.000 0.000 0.000 0.000 1.24 Clear
03/22/2019 05:00 AM 46.94 44.06 41.00 66.56 44.78 80.0 29.82 5.37 SE 5.14 SE 8.95 E No 0.000 No Precipitation 03/20/2019 11:30 PM 03/21/2019 12:23 AM 0.000 0.000 0.000 0.000 0.000 1.24 Clear
03/22/2019 05:10 AM 47.30 44.06 40.46 66.56 44.78 77.0 29.81 6.04 SE 7.16 SE 9.40 SE No 0.000 No Precipitation 03/20/2019 11:30 PM 03/21/2019 12:23 AM 0.000 0.000 0.000 0.000 0.000 1.24 Clear
03/22/2019 05:20 AM 47.30 44.06 40.46 66.56 44.78 77.0 29.82 6.26 SE 5.82 SE 14.09 E No 0.000 No Precipitation 03/20/2019 11:30 PM 03/21/2019 12:23 AM 0.000 0.000 0.000 0.000 0.000 1.24 Clear
03/22/2019 05:30 AM 47.12 43.88 40.46 66.56 44.78 78.0 29.82 6.04 SE 6.49 SE 9.17 E No 0.000 No Precipitation 03/20/2019 11:30 PM 03/21/2019 12:23 AM 0.000 0.000 0.000 0.000 0.000 1.24 Clear
03/22/2019 05:40 AM 47.66 44.60 41.18 66.56 44.96 78.0 29.82 5.82 SE 4.92 SE 9.62 SE No 0.000 No Precipitation 03/20/2019 11:30 PM 03/21/2019 12:23 AM 0.000 0.000 0.000 0.000 0.000 1.24 Clear
03/22/2019 05:50 AM 47.66 44.60 41.36 66.56 45.32 79.0 29.82 6.49 SE 7.16 SE 9.17 E No 0.000 No Precipitation 03/20/2019 11:30 PM 03/21/2019 12:23 AM 0.000 0.000 0.000 0.000 0.000 1.24 Clear
03/22/2019 06:00 AM 48.20 44.96 41.72 66.56 45.32 79.0 29.82 5.14 SE 2.91 SE 10.07 SE No 0.000 No Precipitation 03/20/2019 11:30 PM 03/21/2019 12:23 AM 0.000 0.000 0.000 0.000 0.000 1.24 Clear
03/22/2019 06:10 AM 48.38 45.14 41.72 66.56 45.32 78.0 29.82 4.92 SE 6.04 SE 8.28 SE No 0.000 No Precipitation 03/20/2019 11:30 PM 03/21/2019 12:23 AM 0.000 0.000 0.000 0.000 0.000 1.24 Clear
03/22/2019 06:20 AM 48.20 44.96 41.72 66.56 45.32 78.0 29.81 6.04 SE 7.16 SE 9.40 E No 0.000 No Precipitation 03/20/2019 11:30 PM 03/21/2019 12:23 AM 0.000 0.000 0.000 0.000 0.000 1.24 Clear
03/22/2019 06:30 AM 48.38 45.14 41.72 66.56 45.32 78.0 29.81 4.70 SE 6.26 SE 9.40 E No 0.000 No Precipitation 03/20/2019 11:30 PM 03/21/2019 12:23 AM 0.000 0.000 0.000 0.000 0.000 1.24 Clear
03/22/2019 06:40 AM 48.56 45.32 42.08 66.56 45.32 79.0 29.82 6.04 SE 7.16 SE 9.84 E No 0.000 No Precipitation 03/20/2019 11:30 PM 03/21/2019 12:23 AM 0.000 0.000 0.000 0.000 0.000 1.24 Clear
03/22/2019 06:50 AM 49.10 45.68 42.26 66.56 45.32 77.0 29.82 6.04 SE 4.70 SE 9.40 E No 0.000 No Precipitation 03/20/2019 11:30 PM 03/21/2019 12:23 AM 0.000 0.000 0.000 0.000 0.000 1.24 Clear
03/22/2019 07:00 AM 49.28 45.68 42.08 66.56 45.32 76.0 29.82 4.70 E 5.14 E 8.72 SE No 0.000 No Precipitation 03/20/2019 11:30 PM 03/21/2019 12:23 AM 0.000 0.000 0.000 0.000 0.000 1.24 Clear
03/22/2019 07:10 AM 49.28 45.68 41.90 66.56 45.32 76.0 29.82 4.47 E 6.04 E 9.17 E No 0.000 No Precipitation 03/20/2019 11:30 PM 03/21/2019 12:23 AM 0.000 0.000 0.000 0.000 0.000 1.24 Clear
03/22/2019 07:20 AM 49.64 45.86 41.90 66.56 45.32 75.0 29.82 5.82 SE 4.70 E 9.17 E No 0.000 No Precipitation 03/20/2019 11:30 PM 03/21/2019 12:23 AM 0.000 0.000 0.000 0.000 0.000 1.24 Clear
03/22/2019 07:30 AM 50.36 45.86 41.36 66.56 45.32 71.0 29.82 5.59 E 6.71 E 10.29 E No 0.000 No Precipitation 03/20/2019 11:30 PM 03/21/2019 12:23 AM 0.000 0.000 0.000 0.000 0.000 1.24 Clear
03/22/2019 07:40 AM 50.18 46.04 41.72 66.56 45.32 73.0 29.82 6.71 E 6.93 E 10.51 E No 0.000 No Precipitation 03/20/2019 11:30 PM 03/21/2019 12:23 AM 0.000 0.000 0.000 0.000 0.000 1.24 Clear
03/22/2019 07:50 AM 50.18 45.86 41.72 66.56 45.32 73.0 29.82 5.37 E 4.70 E 8.72 E No 0.000 No Precipitation 03/20/2019 11:30 PM 03/21/2019 12:23 AM 0.000 0.000 0.000 0.000 0.000 1.24 Clear
03/22/2019 08:00 AM 49.10 45.68 42.08 66.56 45.86 77.0 29.82 4.70 E 4.03 E 9.17 E No 0.000 No Precipitation 03/20/2019 11:30 PM 03/21/2019 12:23 AM 0.000 0.000 0.000 0.000 0.000 1.24 Clear
03/22/2019 08:10 AM 48.74 45.50 42.08 66.56 45.86 78.0 29.82 4.25 NE 4.03 NE 6.26 NE No 0.000 No Precipitation 03/20/2019 11:30 PM 03/21/2019 12:23 AM 0.000 0.000 0.000 0.000 0.000 1.24 Clear
03/22/2019 08:20 AM 49.10 45.50 41.72 66.56 45.86 76.0 29.82 5.14 E 5.82 E 7.61 E No 0.000 No Precipitation 03/20/2019 11:30 PM 03/21/2019 12:23 AM 0.000 0.000 0.000 0.000 0.000 1.24 Clear
03/22/2019 08:30 AM 50.18 46.04 41.72 66.56 45.86 73.0 29.82 5.37 E 6.04 E 8.50 E No 0.000 No Precipitation 03/20/2019 11:30 PM 03/21/2019 12:23 AM 0.000 0.000 0.000 0.000 0.000 1.24 Clear
03/22/2019 08:40 AM 50.54 46.22 41.90 66.56 45.86 73.0 29.82 6.93 E 6.71 E 9.84 E No 0.000 No Precipitation 03/20/2019 11:30 PM 03/21/2019 12:23 AM 0.000 0.000 0.000 0.000 0.000 1.24 Clear
03/22/2019 08:50 AM 50.72 46.40 41.90 66.56 45.86 72.0 29.82 5.37 E 5.14 E 8.28 E No 0.000 No Precipitation 03/20/2019 11:30 PM 03/21/2019 12:23 AM 0.000 0.000 0.000 0.000 0.000 1.24 Clear
03/22/2019 09:00 AM 51.08 46.58 42.26 66.56 45.86 72.0 29.82 4.92 E 4.70 E 7.61 E No 0.000 No Precipitation 03/20/2019 11:30 PM 03/21/2019 12:23 AM 0.000 0.000 0.000 0.000 0.000 1.24 Clear
03/22/2019 09:10 AM 50.54 46.58 42.62 66.56 45.86 75.0 29.82 4.03 E 4.25 E 7.16 E No 0.000 No Precipitation 03/20/2019 11:30 PM 03/21/2019 12:23 AM 0.000 0.000 0.000 0.000 0.000 1.24 Clear
03/22/2019 09:20 AM 50.72 46.76 43.16 66.56 45.86 75.0 29.83 3.58 NE 4.25 NE 7.61 E No 0.000 No Precipitation 03/20/2019 11:30 PM 03/21/2019 12:23 AM 0.000 0.000 0.000 0.000 0.000 1.24 Clear
03/22/2019 09:30 AM 50.90 46.94 42.98 66.56 45.86 75.0 29.83 4.25 NE 3.36 NE 6.26 E No 0.000 No Precipitation 03/20/2019 11:30 PM 03/21/2019 12:23 AM 0.000 0.000 0.000 0.000 0.000 1.24 Clear
03/22/2019 09:40 AM 51.08 47.12 43.16 66.56 45.86 75.0 29.83 4.92 NE 4.25 NE 6.71 NE No 0.000 No Precipitation 03/20/2019 11:30 PM 03/21/2019 12:23 AM 0.000 0.000 0.000 0.000 0.000 1.24 Clear
03/22/2019 09:50 AM 51.08 47.30 43.52 66.56 45.86 75.0 29.83 2.91 NE 2.91 NE 6.04 NE No 0.000 No Precipitation 03/20/2019 11:30 PM 03/21/2019 12:23 AM 0.000 0.000 0.000 0.000 0.000 1.24 Clear
03/22/2019 10:00 AM 51.44 48.02 44.60 66.56 45.86 78.0 29.83 2.24 NE 2.24 NE 4.03 NE No 0.000 No Precipitation 03/20/2019 11:30 PM 03/21/2019 12:23 AM 0.000 0.000 0.000 0.000 0.000 1.24 Clear
03/22/2019 10:10 AM 51.44 47.84 44.24 66.56 45.86 77.0 29.84 2.01 NE 2.68 NE 4.47 E No 0.000 No Precipitation 03/20/2019 11:30 PM 03/21/2019 12:23 AM 0.000 0.000 0.000 0.000 0.000 1.24 Clear
03/22/2019 10:20 AM 51.80 48.38 44.96 66.56 45.86 78.0 29.84 1.12 NE 1.34 N 4.70 E No 0.000 No Precipitation 03/20/2019 11:30 PM 03/21/2019 12:23 AM 0.000 0.000 0.000 0.000 0.000 1.24 Clear
03/22/2019 10:30 AM 51.98 48.56 45.32 66.56 45.86 78.0 29.84 1.12 NE 0.00 N 0.00 S No 0.000 No Precipitation 03/20/2019 11:30 PM 03/21/2019 12:23 AM 0.000 0.000 0.000 0.000 0.000 1.24 Clear
03/22/2019 10:40 AM 52.52 48.56 44.78 66.56 45.86 75.0 29.84 2.01 NE 3.80 NE 7.16 E No 0.000 No Precipitation 03/20/2019 11:30 PM 03/21/2019 12:23 AM 0.000 0.000 0.000 0.000 0.000 1.24 Clear
03/22/2019 10:50 AM 52.70 48.20 43.88 66.56 45.86 72.0 29.84 2.24 NE 1.57 NE 7.16 E No 0.000 No Precipitation 03/20/2019 11:30 PM 03/21/2019 12:23 AM 0.000 0.000 0.000 0.000 0.000 1.24 Clear
03/22/2019 11:00 AM 53.06 48.38 44.24 66.56 45.86 72.0 29.84 1.34 N 1.34 N 3.36 NE No 0.000 No Precipitation 03/20/2019 11:30 PM 03/21/2019 12:23 AM 0.000 0.000 0.000 0.000 0.000 1.24 Clear
03/22/2019 11:10 AM 53.42 49.28 45.50 66.56 45.86 74.0 29.85 1.57 N 2.68 N 2.68 N Yes 0.000 Rain Slight 03/22/2019 10:02 AM   0.000 0.000 0.000 0.000 0.000 1.24 Clear
03/22/2019 11:20 AM 53.60 48.74 44.42 66.56 45.86 71.0 29.85 1.34 NE 1.79 NE 3.58 N Yes 0.000 No Precipitation 03/22/2019 10:02 AM   0.000 0.000 0.000 0.000 0.000 1.24 Clear
03/22/2019 11:30 AM 54.32 49.10 44.42 66.56 45.86 69.0 29.85 2.24 W 1.34 W 3.80 W No 0.000 No Precipitation 03/22/2019 10:02 AM 03/22/2019 10:25 AM 0.000 0.000 0.000 0.000 0.000 1.24 Clear
03/22/2019 11:40 AM 54.86 49.64 44.78 66.56 45.86 69.0 29.86 1.79 SW 1.79 S 6.04 SE No 0.000 No Precipitation 03/22/2019 10:02 AM 03/22/2019 10:25 AM 0.000 0.000 0.000 0.000 0.000 1.24 Clear
03/22/2019 11:50 AM 55.04 49.82 45.14 66.56 45.86 69.0 29.86 1.57 NW 1.34 NW 5.37 W No 0.000 No Precipitation 03/22/2019 10:02 AM 03/22/2019 10:25 AM 0.000 0.000 0.000 0.000 0.000 1.24 Clear
03/22/2019 12:00 PM 55.04 49.10 43.88 66.56 45.86 66.0 29.86 1.57 W 1.57 W 4.25 W No 0.000 No Precipitation 03/22/2019 10:02 AM 03/22/2019 10:25 AM 0.000 0.000 0.000 0.000 0.000 1.24 Clear
03/22/2019 12:10 PM 56.30 49.64 43.52 66.56 45.86 62.0 29.86 1.79 SE 2.01 E 7.38 S No 0.000 No Precipitation 03/22/2019 10:02 AM 03/22/2019 10:25 AM 0.000 0.000 0.000 0.000 0.000 1.24 Clear
03/22/2019 12:20 PM 57.20 49.28 41.90 66.56 45.86 57.0 29.86 0.00 N 2.01 NE 6.04 E No 0.000 No Precipitation 03/22/2019 10:02 AM 03/22/2019 10:25 AM 0.000 0.000 0.000 0.000 0.000 1.24 Clear
03/22/2019 12:30 PM 57.02 49.64 42.80 66.56 45.86 59.0 29.86 2.01 W 2.01 NW 6.49 E No 0.000 No Precipitation 03/22/2019 10:02 AM 03/22/2019 10:25 AM 0.000 0.000 0.000 0.000 0.000 1.24 Clear
03/22/2019 12:40 PM 59.00 50.90 43.88 66.56 45.86 57.0 29.86 3.58 SW 4.92 SW 6.71 SW No 0.000 No Precipitation 03/22/2019 10:02 AM 03/22/2019 10:25 AM 0.000 0.000 0.000 0.000 0.000 1.24 Clear
03/22/2019 12:50 PM 57.56 50.00 42.98 66.56 45.86 58.0 29.87 3.58 W 3.13 S 6.04 SW No 0.000 No Precipitation 03/22/2019 10:02 AM 03/22/2019 10:25 AM 0.000 0.000 0.000 0.000 0.000 1.24 Clear
03/22/2019 01:00 PM 58.10 50.90 44.42 66.56 45.86 60.0 29.86 5.14 W 7.16 W 7.83 SW No 0.000 No Precipitation 03/22/2019 10:02 AM 03/22/2019 10:25 AM 0.000 0.000 0.000 0.000 0.000 1.24 Clear
03/22/2019 01:20 PM 58.46 50.72 43.70 66.56 45.86 58.0 29.86 2.68 NE 3.13 NE 5.82 NW No 0.000 No Precipitation 03/22/2019 10:02 AM 03/22/2019 10:25 AM 0.000 0.000 0.000 0.000 0.000 1.24 Clear
03/22/2019 01:30 PM 59.18 51.44 44.78 66.56 45.86 59.0 29.86 2.68 S 4.25 SW 8.95 E No 0.000 No Precipitation 03/22/2019 10:02 AM 03/22/2019 10:25 AM 0.000 0.000 0.000 0.000 0.000 1.24 Clear
03/22/2019 01:40 PM 59.36 50.90 43.70 66.56 45.86 56.0 29.85 2.68 NE 2.91 NE 6.93 SE No 0.000 No Precipitation 03/22/2019 10:02 AM 03/22/2019 10:25 AM 0.000 0.000 0.000 0.000 0.000 1.24 Clear
03/22/2019 01:50 PM 58.82 50.72 43.16 66.56 45.86 56.0 29.85 2.46 NW 2.01 N 6.49 N No 0.000 No Precipitation 03/22/2019 10:02 AM 03/22/2019 10:25 AM 0.000 0.000 0.000 0.000 0.000 1.24 Clear
03/22/2019 02:00 PM 58.28 50.54 43.52 66.56 45.86 58.0 29.85 3.58 N 3.13 NE 7.16 E No 0.000 No Precipitation 03/22/2019 10:02 AM 03/22/2019 10:25 AM 0.000 0.000 0.000 0.000 0.000 1.24 Clear
03/22/2019 02:10 PM 58.82 50.72 43.52 66.56 45.86 57.0 29.85 3.36 NE 3.13 NE 10.29 E No 0.000 No Precipitation 03/22/2019 10:02 AM 03/22/2019 10:25 AM 0.000 0.000 0.000 0.000 0.000 1.24 Clear
03/22/2019 02:20 PM 59.18 51.08 44.06 66.56 45.86 57.0 29.85 3.36 NE 4.47 NE 7.16 NE No 0.000 No Precipitation 03/22/2019 10:02 AM 03/22/2019 10:25 AM 0.000 0.000 0.000 0.000 0.000 1.24 Clear
03/22/2019 02:30 PM 59.54 51.26 44.06 66.56 45.86 57.0 29.85 4.70 E 6.04 E 10.07 E No 0.000 No Precipitation 03/22/2019 10:02 AM 03/22/2019 10:25 AM 0.000 0.000 0.000 0.000 0.000 1.24 Clear
03/22/2019 02:40 PM 60.08 51.44 43.70 66.56 45.86 55.0 29.84 1.34 NE 0.00 N 6.93 E No 0.000 No Precipitation 03/22/2019 10:02 AM 03/22/2019 10:25 AM 0.000 0.000 0.000 0.000 0.000 1.24 Clear
03/22/2019 02:50 PM 60.26 51.44 43.52 66.56 45.86 54.0 29.84 3.13 NE 1.57 NE 6.71 E No 0.000 No Precipitation 03/22/2019 10:02 AM 03/22/2019 10:25 AM 0.000 0.000 0.000 0.000 0.000 1.24 Clear
03/22/2019 03:00 PM 61.16 52.16 44.24 66.56 45.86 54.0 29.84 4.03 NE 2.46 NE 8.28 NE No 0.000 No Precipitation 03/22/2019 10:02 AM 03/22/2019 10:25 AM 0.000 0.000 0.000 0.000 0.000 1.24 Clear
03/22/2019 03:10 PM 61.16 51.62 43.34 66.56 45.86 52.0 29.84 6.04 NE 6.93 NE 8.95 N No 0.000 No Precipitation 03/22/2019 10:02 AM 03/22/2019 10:25 AM 0.000 0.000 0.000 0.000 0.000 1.24 Clear
03/22/2019 03:20 PM 61.34 51.98 43.34 66.56 45.86 52.0 29.83 4.47 NE 8.05 E 8.05 NE No 0.000 No Precipitation 03/22/2019 10:02 AM 03/22/2019 10:25 AM 0.000 0.000 0.000 0.000 0.000 1.24 Clear
03/22/2019 03:30 PM 62.06 51.80 42.62 66.56 45.86 49.0 29.83 6.71 NE 4.92 NE 9.17 NE No 0.000 No Precipitation 03/22/2019 10:02 AM 03/22/2019 10:25 AM 0.000 0.000 0.000 0.000 0.000 1.24 Clear
03/22/2019 03:40 PM 61.88 51.80 42.80 66.56 45.86 50.0 29.83 7.16 NE 6.93 NE 11.41 E No 0.000 No Precipitation 03/22/2019 10:02 AM 03/22/2019 10:25 AM 0.000 0.000 0.000 0.000 0.000 1.24 Clear
03/22/2019 04:00 PM 62.42 52.52 44.24 66.56 45.86 52.0 29.82 6.93 NE 7.38 NE 13.42 E No 0.000 No Precipitation 03/22/2019 10:02 AM 03/22/2019 10:25 AM 0.000 0.000 0.000 0.000 0.000 1.24 Clear
03/22/2019 04:10 PM 63.32 53.78 45.68 66.56 45.86 53.0 29.82 5.14 E 5.82 E 12.53 E No 0.000 No Precipitation 03/22/2019 10:02 AM 03/22/2019 10:25 AM 0.000 0.000 0.000 0.000 0.000 1.24 Clear
03/22/2019 04:20 PM 63.32 53.96 46.58 66.56 45.86 55.0 29.82 5.59 NE 5.14 NE 10.96 E No 0.000 No Precipitation 03/22/2019 10:02 AM 03/22/2019 10:25 AM 0.000 0.000 0.000 0.000 0.000 1.24 Clear
03/22/2019 04:30 PM 62.78 53.60 46.04 66.56 45.86 54.0 29.82 7.83 NE 5.59 E 12.53 NE No 0.000 No Precipitation 03/22/2019 10:02 AM 03/22/2019 10:25 AM 0.000 0.000 0.000 0.000 0.000 1.24 Clear
03/22/2019 04:40 PM 62.96 53.96 46.58 66.56 45.86 55.0 29.81 8.05 NE 6.26 NE 11.63 NE No 0.000 No Precipitation 03/22/2019 10:02 AM 03/22/2019 10:25 AM 0.000 0.000 0.000 0.000 0.000 1.24 Clear
03/22/2019 04:50 PM 63.32 53.96 46.40 66.56 45.86 54.0 29.81 8.50 E 9.40 E 11.63 NE No 0.000 No Precipitation 03/22/2019 10:02 AM 03/22/2019 10:25 AM 0.000 0.000 0.000 0.000 0.000 1.24 Clear
03/22/2019 05:00 PM 62.60 53.78 46.58 66.56 45.86 56.0 29.81 4.70 NE 4.70 NE 10.51 E No 0.000 No Precipitation 03/22/2019 10:02 AM 03/22/2019 10:25 AM 0.000 0.000 0.000 0.000 0.000 1.24 Clear
03/22/2019 05:10 PM 62.60 53.96 46.76 65.48 45.86 56.0 29.81 5.59 NE 4.70 NE 9.84 NE No 0.000 No Precipitation 03/22/2019 10:02 AM 03/22/2019 10:25 AM 0.000 0.000 0.000 0.000 0.000 1.24 Clear
03/22/2019 05:20 PM 62.42 53.78 46.76 64.94 45.86 57.0 29.80 6.49 NE 6.04 NE 11.63 NE No 0.000 No Precipitation 03/22/2019 10:02 AM 03/22/2019 10:25 AM 0.000 0.000 0.000 0.000 0.000 1.24 Clear
03/22/2019 05:30 PM 62.06 53.60 46.58 64.76 45.86 57.0 29.80 4.92 NE 4.25 NE 10.29 NE No 0.000 No Precipitation 03/22/2019 10:02 AM 03/22/2019 10:25 AM 0.000 0.000 0.000 0.000 0.000 1.24 Clear
03/22/2019 05:40 PM 62.06 54.14 47.84 64.76 45.86 60.0 29.80 4.03 NE 4.03 NE 8.05 NE No 0.000 No Precipitation 03/22/2019 10:02 AM 03/22/2019 10:25 AM 0.000 0.000 0.000 0.000 0.000 1.24 Clear
03/22/2019 05:50 PM 62.24 54.32 48.02 64.76 45.86 60.0 29.80 5.82 E 5.82 E 8.95 NE Yes 0.000 Rain Slight 03/22/2019 04:49 PM   0.000 0.000 0.000 0.000 0.000 1.24 Clear
03/22/2019 06:00 PM 61.70 54.14 48.38 64.22 45.86 62.0 29.80 4.03 NE 3.36 NE 6.93 E Yes 0.000 Rain Slight 03/22/2019 04:49 PM   0.000 0.000 0.000 0.000 0.000 1.24 Clear
03/22/2019 06:10 PM 61.16 54.50 49.46 64.22 45.86 65.0 29.80 2.01 NE 0.00 N 7.83 E Yes 0.002 Rain Slight 03/22/2019 04:49 PM   0.004 0.004 0.004 0.004 0.004 1.24 Clear
03/22/2019 06:20 PM 59.54 55.40 52.34 64.22 45.86 77.0 29.80 9.62 SW 8.72 SW 13.42 SW Yes 0.001 Rain Slight 03/22/2019 04:49 PM   0.004 0.004 0.004 0.004 0.004 1.24 Clear
03/22/2019 06:30 PM 57.74 54.32 51.62 64.22 45.86 80.0 29.80 11.18 SW 10.96 SW 14.76 SW Yes 0.001 Rain Slight 03/22/2019 04:49 PM   0.008 0.008 0.008 0.008 0.008 1.24 Clear
03/22/2019 06:40 PM 57.56 53.60 50.54 64.22 45.86 78.0 29.81 11.18 SW 12.97 SW 13.65 SW Yes 0.001 Rain Slight 03/22/2019 04:49 PM   0.008 0.008 0.008 0.008 0.008 1.24 Clear
03/22/2019 06:50 PM 57.02 53.78 51.26 63.86 45.86 81.0 29.81 9.17 SW 6.93 SW 14.09 SW Yes 0.001 Rain Slight 03/22/2019 04:49 PM   0.008 0.012 0.012 0.012 0.012 1.24 Clear
03/22/2019 07:00 PM 56.66 53.60 51.26 63.68 45.86 82.0 29.81 8.50 SW 7.83 SW 12.08 SW Yes 0.001 Rain Slight 03/22/2019 04:49 PM   0.012 0.012 0.012 0.012 0.012 1.24 Clear
03/22/2019 07:10 PM 56.66 53.60 51.08 63.68 45.86 82.0 29.80 6.93 SW 6.49 SW 10.07 SW Yes 0.001 Rain Slight 03/22/2019 04:49 PM   0.012 0.012 0.012 0.012 0.012 1.24 Clear
03/22/2019 07:20 PM 56.30 53.42 51.08 63.68 45.86 83.0 29.80 6.04 SW 5.82 SW 8.95 SW Yes 0.001 Rain Slight 03/22/2019 04:49 PM   0.012 0.016 0.016 0.016 0.016 1.24 Clear
03/22/2019 07:30 PM 56.12 53.42 51.26 63.68 45.86 84.0 29.80 4.47 SW 4.03 SW 7.83 SW Yes 0.001 Rain Slight 03/22/2019 04:49 PM   0.012 0.016 0.016 0.016 0.016 1.24 Clear
03/22/2019 07:40 PM 56.12 53.24 51.08 63.68 45.86 83.0 29.80 3.58 SW 3.58 W 5.82 SW Yes 0.001 Rain Slight 03/22/2019 04:49 PM   0.012 0.020 0.020 0.020 0.020 1.24 Clear
03/22/2019 07:50 PM 56.12 52.88 50.36 63.68 45.86 81.0 29.80 2.91 SW 3.58 W 5.82 W Yes 0.000 Rain Slight 03/22/2019 04:49 PM   0.012 0.020 0.020 0.020 0.020 1.24 Clear
03/22/2019 08:00 PM 56.48 53.24 50.54 63.68 45.86 81.0 29.80 1.79 SW 2.01 N 4.70 SW Yes 0.001 Rain Slight 03/22/2019 04:49 PM   0.008 0.020 0.020 0.020 0.020 1.24 Clear
03/22/2019 08:10 PM 55.22 53.60 52.34 63.68 45.86 90.0 29.80 1.57 NW 2.01 NW 4.25 E Yes 0.000 No Precipitation 03/22/2019 04:49 PM   0.008 0.020 0.020 0.020 0.020 1.24 Clear
03/22/2019 08:20 PM 55.04 53.60 52.52 63.68 45.86 92.0 29.81 1.79 NW 1.57 W 2.91 NW No 0.000 No Precipitation 03/22/2019 04:49 PM 03/22/2019 07:12 PM 0.008 0.020 0.020 0.020 0.020 1.24 Clear
03/22/2019 08:30 PM 55.22 53.42 52.16 63.68 45.86 89.0 29.81 1.79 W 2.46 W 3.36 SE Yes 0.002 Rain Slight 03/22/2019 07:23 PM   0.004 0.024 0.024 0.024 0.024 1.24 Clear
03/22/2019 08:40 PM 55.58 53.78 52.34 63.68 45.86 89.0 29.81 3.13 SW 2.91 SW 4.70 SW Yes 0.001 Rain Slight 03/22/2019 07:23 PM   0.004 0.024 0.024 0.024 0.024 1.24 Clear
03/22/2019 08:50 PM 55.58 53.96 52.52 63.68 45.86 90.0 29.81 2.46 S 1.12 NW 6.04 E Yes 0.000 Rain Slight 03/22/2019 07:23 PM   0.004 0.028 0.028 0.028 0.028 1.24 Clear
03/22/2019 09:00 PM 55.40 53.78 52.70 63.68 45.86 91.0 29.81 1.57 N 2.46 NW 4.25 NE Yes 0.000 Rain Slight 03/22/2019 07:23 PM   0.004 0.028 0.028 0.028 0.028 1.24 Clear
03/22/2019 09:10 PM 55.04 53.60 52.52 63.68 45.86 91.0 29.81 2.24 W 1.57 W 4.03 NW Yes 0.002 Rain Slight 03/22/2019 07:23 PM   0.008 0.024 0.028 0.028 0.028 1.24 Clear
03/22/2019 09:20 PM 54.86 53.60 52.70 63.68 45.86 92.0 29.81 2.24 W 2.24 W 4.25 E Yes 0.001 Rain Slight 03/22/2019 07:23 PM   0.012 0.028 0.031 0.031 0.031 1.24 Clear
03/22/2019 09:30 PM 54.86 53.60 52.70 63.68 45.86 93.0 29.81 1.79 NW 1.34 W 3.13 NW Yes 0.001 Rain Slight 03/22/2019 07:23 PM   0.012 0.024 0.031 0.031 0.031 1.24 Clear
03/22/2019 09:40 PM 54.86 53.78 52.88 63.68 45.86 93.0 29.81 0.00 N 0.00 N 5.37 E Yes 0.001 Rain Slight 03/22/2019 07:23 PM   0.012 0.028 0.035 0.035 0.035 1.24 Clear
03/22/2019 09:50 PM 54.86 53.78 52.88 63.68 45.86 93.0 29.81 1.57 SE 2.46 SW 4.25 E Yes 0.001 Rain Slight 03/22/2019 07:23 PM   0.012 0.028 0.035 0.035 0.035 1.24 Clear
03/22/2019 10:00 PM 54.50 53.42 52.52 63.68 45.86 93.0 29.81 2.24 W 1.79 W 4.03 SW Yes 0.000 Rain Slight 03/22/2019 07:23 PM   0.012 0.028 0.039 0.039 0.039 1.24 Clear
03/22/2019 10:10 PM 54.14 53.06 51.98 63.68 45.86 92.0 29.81 2.24 W 2.01 W 5.37 W Yes 0.001 Rain Slight 03/22/2019 07:23 PM   0.012 0.028 0.039 0.039 0.039 1.24 Clear
03/22/2019 10:20 PM 54.14 53.06 52.16 63.68 45.86 93.0 29.82 2.01 W 0.00 N 3.58 NW Yes 0.001 Rain Slight 03/22/2019 07:23 PM   0.008 0.024 0.039 0.039 0.039 1.24 Clear
03/22/2019 10:30 PM 54.14 52.88 51.80 63.68 45.86 92.0 29.82 1.34 N 0.00 N 4.03 E Yes 0.000 Rain Slight 03/22/2019 07:23 PM   0.008 0.024 0.039 0.039 0.039 1.24 Clear
03/22/2019 10:40 PM 54.14 52.70 51.62 63.68 45.86 92.0 29.82 2.91 W 2.24 W 4.03 W Yes 0.001 Rain Slight 03/22/2019 07:23 PM   0.008 0.024 0.043 0.043 0.043 1.24 Clear
03/22/2019 10:50 PM 53.78 52.70 51.80 63.68 45.86 93.0 29.82 2.46 W 2.24 W 3.80 W Yes 0.001 Rain Slight 03/22/2019 07:23 PM   0.008 0.024 0.043 0.043 0.043 1.24 Clear
03/22/2019 11:00 PM 53.78 52.70 51.98 63.68 45.86 93.0 29.82 1.34 N 2.01 NE 3.58 W Yes 0.001 Rain Slight 03/22/2019 07:23 PM   0.008 0.024 0.047 0.047 0.047 1.24 Clear
03/22/2019 11:10 PM 53.78 52.52 51.44 63.68 45.86 92.0 29.82 2.24 W 2.68 W 4.25 SW Yes 0.002 Rain Slight 03/22/2019 07:23 PM   0.012 0.028 0.051 0.051 0.051 1.24 Clear
03/22/2019 11:20 PM 53.60 52.70 51.80 63.68 45.86 94.0 29.82 1.12 SW 2.24 W 4.70 W Yes 0.002 Rain Slight 03/22/2019 07:23 PM   0.016 0.031 0.055 0.055 0.055 1.24 Clear
03/22/2019 11:30 PM 53.06 51.98 51.26 63.68 45.86 93.0 29.82 2.68 W 3.58 W 4.92 W Yes 0.002 Rain Slight 03/22/2019 07:23 PM   0.016 0.035 0.059 0.059 0.059 1.24 Clear
03/22/2019 11:40 PM 52.88 51.80 51.08 63.68 45.86 94.0 29.82 2.46 W 2.01 W 4.25 NW Yes 0.002 Rain Slight 03/22/2019 07:23 PM   0.020 0.039 0.063 0.063 0.063 1.24 Clear
03/22/2019 11:50 PM 52.88 52.16 51.44 63.68 45.86 95.0 29.82 2.01 N 3.36 NW 4.03 W Yes 0.002 Rain Slight 03/22/2019 07:23 PM   0.024 0.039 0.067 0.067 0.067 1.24 Clear